Time;durP1;ratioP1;P1;durP2;ratioP2;P2;SDS_P1;SDS_P2;PMS_P1;PMS_P2;Temp;Humidity;BMP_temperature;BMP_pressure;BME280_temperature;BME280_humidity;BME280_pressure;Samples;Min_cycle;Max_cycle;Signal;HPM_P1;HPM_P2
2023/07/09 00:01:41;;;;;;;7.00;4.80;;;;;;;19.03;56.84;101384.03;4977997;28;20220;-76
2023/07/09 00:04:10;;;;;;;7.37;5.73;;;;;;;19.00;57.76;101371.34;4976862;28;20221;-76
2023/07/09 00:06:37;;;;;;;8.93;4.90;;;;;;;18.96;57.86;101367.88;4977643;28;20219;-76
2023/07/09 00:09:05;;;;;;;6.00;4.63;;;;;;;18.92;57.53;101360.91;4971964;28;20256;-76
2023/07/09 00:11:32;;;;;;;11.70;5.30;;;;;;;18.86;57.39;101376.53;4972798;28;20300;-76
2023/07/09 00:13:58;;;;;;;4.70;4.20;;;;;;;18.82;58.01;101374.91;4973722;28;20676;-76
2023/07/09 00:16:26;;;;;;;4.97;4.10;;;;;;;18.77;57.81;101367.19;4977752;28;20694;-76
2023/07/09 00:18:53;;;;;;;8.10;4.90;;;;;;;18.73;58.68;101366.41;4973778;28;20234;-76
2023/07/09 00:21:22;;;;;;;6.57;4.97;;;;;;;18.66;57.97;101364.38;4974468;28;20209;-76
2023/07/09 00:23:49;;;;;;;6.30;5.00;;;;;;;18.62;58.10;101368.91;4971098;28;20244;-76
2023/07/09 00:26:17;;;;;;;5.60;4.63;;;;;;;18.58;58.65;101368.06;4971704;28;20801;-75
2023/07/09 00:28:44;;;;;;;6.70;4.63;;;;;;;18.54;58.79;101366.50;4974512;28;20220;-76
2023/07/09 00:31:13;;;;;;;5.93;4.63;;;;;;;18.49;58.04;101367.59;4976329;28;20295;-76
2023/07/09 00:33:40;;;;;;;5.87;4.47;;;;;;;18.45;58.08;101361.41;4974717;28;20217;-76
2023/07/09 00:36:14;;;;;;;5.03;4.37;;;;;;;18.41;57.91;101357.09;4952559;28;20224;-76
2023/07/09 00:38:47;;;;;;;5.43;4.93;;;;;;;18.36;57.08;101352.84;4958938;28;20320;-76
2023/07/09 00:41:17;;;;;;;5.97;5.27;;;;;;;18.35;56.79;101355.88;4958857;28;20280;-76
2023/07/09 00:43:45;;;;;;;5.50;4.50;;;;;;;18.33;55.67;101353.56;4957880;28;20225;-76
2023/07/09 00:46:17;;;;;;;4.93;4.40;;;;;;;18.32;55.81;101354.69;4972769;28;20220;-76
2023/07/09 00:48:45;;;;;;;6.03;4.67;;;;;;;18.34;57.75;101359.69;4956403;28;20309;-76
2023/07/09 00:51:14;;;;;;;5.17;4.67;;;;;;;18.33;57.95;101355.47;4953367;28;20217;-76
2023/07/09 00:53:46;;;;;;;5.10;4.60;;;;;;;18.31;57.17;101365.72;4961606;28;20212;-76
2023/07/09 00:56:15;;;;;;;5.77;4.93;;;;;;;18.28;55.58;101361.88;4973331;28;20680;-76
2023/07/09 00:58:46;;;;;;;5.07;4.43;;;;;;;18.27;54.47;101354.19;4974851;28;20229;-76
2023/07/09 01:01:16;;;;;;;8.00;5.10;;;;;;;18.28;53.82;101353.06;4973208;28;20562;-76
2023/07/09 01:03:47;;;;;;;5.30;4.80;;;;;;;18.31;53.32;101349.69;4974902;28;20217;-76
2023/07/09 01:06:19;;;;;;;4.97;4.53;;;;;;;18.32;54.25;101354.69;4973622;28;20212;-76
2023/07/09 01:08:53;;;;;;;5.80;4.87;;;;;;;18.34;55.13;101351.66;4957677;28;20236;-76
2023/07/09 01:11:23;;;;;;;6.83;4.73;;;;;;;18.35;56.17;101345.19;4956222;28;20322;-76
2023/07/09 01:13:51;;;;;;;5.97;4.57;;;;;;;18.36;58.27;101344.06;4958851;28;20214;-76
2023/07/09 01:16:17;;;;;;;4.90;4.40;;;;;;;18.34;56.36;101355.13;4961036;28;20315;-76
2023/07/09 01:18:44;;;;;;;5.17;4.50;;;;;;;18.33;57.75;101358.16;4970393;28;20217;-75
2023/07/09 01:21:15;;;;;;;5.30;4.67;;;;;;;18.32;58.74;101361.94;4954953;28;20213;-76
2023/07/09 01:23:43;;;;;;;8.63;4.63;;;;;;;18.29;60.05;101363.41;4958511;28;20328;-75
2023/07/09 01:26:11;;;;;;;5.47;4.73;;;;;;;18.26;60.21;101358.75;4956746;28;20216;-76
2023/07/09 01:28:41;;;;;;;6.80;4.63;;;;;;;18.23;60.69;101359.50;4971617;28;20609;-76
2023/07/09 01:31:08;;;;;;;5.10;4.57;;;;;;;18.19;60.86;101363.22;4973571;28;20316;-76
2023/07/09 01:33:34;;;;;;;9.83;5.30;;;;;;;18.13;60.89;101360.09;4973319;28;20288;-76
2023/07/09 01:36:01;;;;;;;10.10;5.33;;;;;;;18.07;60.44;101374.84;4974891;28;20581;-76
2023/07/09 01:38:30;;;;;;;5.17;4.67;;;;;;;18.03;60.85;101362.56;4975581;28;20205;-76
2023/07/09 01:40:57;;;;;;;7.10;5.40;;;;;;;17.99;61.03;101361.72;4976941;28;20228;-75
2023/07/09 01:43:24;;;;;;;5.00;4.60;;;;;;;17.95;61.92;101369.69;4960246;28;20230;-76
2023/07/09 01:45:51;;;;;;;5.27;4.70;;;;;;;17.92;62.49;101372.31;4978281;28;21650;-76
2023/07/09 01:48:19;;;;;;;7.70;4.93;;;;;;;17.88;62.49;101368.78;4972305;28;20216;-76
2023/07/09 01:50:49;;;;;;;7.97;4.50;;;;;;;17.85;63.71;101362.25;4977277;28;20223;-76
2023/07/09 01:53:20;;;;;;;5.03;4.53;;;;;;;17.83;63.27;101369.88;4975855;28;20202;-76
2023/07/09 01:55:47;;;;;;;5.00;4.50;;;;;;;17.78;62.81;101374.72;4962974;28;20209;-76
2023/07/09 01:58:16;;;;;;;5.87;5.00;;;;;;;17.73;62.79;101367.78;4961019;28;20202;-75
2023/07/09 02:00:43;;;;;;;5.37;4.87;;;;;;;17.70;64.04;101373.06;4979621;28;20690;-76
2023/07/09 02:03:10;;;;;;;5.37;4.70;;;;;;;17.66;64.00;101375.66;4977586;28;20290;-76
2023/07/09 02:05:37;;;;;;;5.30;4.70;;;;;;;17.61;63.35;101369.81;4960650;28;20490;-76
2023/07/09 02:08:04;;;;;;;7.50;5.03;;;;;;;17.57;63.73;101368.97;4958310;28;20209;-76
2023/07/09 02:10:31;;;;;;;5.80;5.00;;;;;;;17.55;64.94;101376.59;4980198;28;20246;-76
2023/07/09 02:13:01;;;;;;;6.97;4.90;;;;;;;17.49;64.72;101375.31;4958923;28;20209;-76
2023/07/09 02:15:27;;;;;;;6.70;5.30;;;;;;;17.42;64.60;101375.94;4954186;28;20203;-76
2023/07/09 02:17:54;;;;;;;7.43;5.40;;;;;;;17.38;65.63;101383.09;4974315;28;20206;-76
2023/07/09 02:20:20;;;;;;;6.23;4.83;;;;;;;17.35;65.88;101375.00;4955741;28;20234;-76
2023/07/09 02:22:48;;;;;;;5.00;4.50;;;;;;;17.31;66.30;101379.50;4976985;28;20220;-76
2023/07/09 02:25:15;;;;;;;7.10;4.80;;;;;;;17.26;66.21;101369.88;4961281;28;20220;-76
2023/07/09 02:27:41;;;;;;;5.07;4.57;;;;;;;17.22;66.19;101374.38;4975424;28;20207;-76
2023/07/09 02:30:10;;;;;;;5.63;4.90;;;;;;;17.17;65.78;101381.84;4973089;28;20682;-76
2023/07/09 02:32:37;;;;;;;6.53;5.13;;;;;;;17.12;66.60;101384.84;4962056;28;20263;-76
2023/07/09 02:35:05;;;;;;;7.47;5.73;;;;;;;17.07;67.01;101393.88;4974350;28;20768;-76
2023/07/09 02:37:32;;;;;;;5.77;5.00;;;;;;;17.01;67.36;101394.47;4976254;28;20826;-76
2023/07/09 02:39:59;;;;;;;5.30;4.77;;;;;;;16.96;67.41;101397.41;4962043;28;20237;-75
2023/07/09 02:42:26;;;;;;;5.80;5.10;;;;;;;16.89;67.27;101389.25;4970479;28;20211;-76
2023/07/09 02:44:52;;;;;;;6.73;5.47;;;;;;;16.82;67.52;101394.44;4960369;28;20616;-76
2023/07/09 02:47:20;;;;;;;7.83;5.17;;;;;;;16.75;67.21;101394.28;4959513;28;20596;-76
2023/07/09 02:49:47;;;;;;;6.43;5.17;;;;;;;16.71;67.66;101393.44;4956503;28;20268;-77
2023/07/09 02:52:13;;;;;;;5.70;5.10;;;;;;;16.65;67.66;101392.91;4972511;28;23577;-76
2023/07/09 02:54:40;;;;;;;6.70;5.53;;;;;;;16.60;68.21;101393.19;4976865;28;20197;-76
2023/07/09 02:57:07;;;;;;;7.90;5.80;;;;;;;16.57;68.54;101393.09;4957277;28;20210;-75
2023/07/09 02:59:33;;;;;;;5.90;5.27;;;;;;;16.53;69.08;101392.25;4977659;28;20214;-76
2023/07/09 03:02:01;;;;;;;6.23;5.20;;;;;;;16.50;68.86;101387.63;4962254;28;20210;-76
2023/07/09 03:04:31;;;;;;;6.17;4.93;;;;;;;16.45;68.86;101385.97;4959273;28;20281;-76
2023/07/09 03:06:57;;;;;;;6.90;5.63;;;;;;;16.44;68.99;101397.75;4957171;28;20584;-76
2023/07/09 03:09:24;;;;;;;7.17;5.57;;;;;;;16.41;69.03;101401.09;4974431;28;20232;-76
2023/07/09 03:11:50;;;;;;;6.47;5.27;;;;;;;16.39;69.08;101402.56;4957535;28;20212;-76
2023/07/09 03:14:16;;;;;;;5.90;5.03;;;;;;;16.36;69.45;101395.22;4959083;28;20210;-76
2023/07/09 03:16:43;;;;;;;6.07;5.47;;;;;;;16.36;69.68;101403.22;4964039;28;20220;-75
2023/07/09 03:19:09;;;;;;;9.77;6.30;;;;;;;16.33;70.02;101399.34;4975577;28;20248;-76
2023/07/09 03:21:37;;;;;;;6.40;5.40;;;;;;;16.33;70.00;101414.56;4958091;28;20205;-76
2023/07/09 03:24:04;;;;;;;5.90;5.27;;;;;;;16.30;70.14;101413.34;4974761;28;20233;-76
2023/07/09 03:26:31;;;;;;;6.20;5.10;;;;;;;16.29;69.94;101416.34;4960684;28;20288;-76
2023/07/09 03:28:57;;;;;;;6.77;5.70;;;;;;;16.30;70.38;101413.34;4961011;28;20237;-76
2023/07/09 03:31:24;;;;;;;5.73;5.17;;;;;;;16.30;70.56;101418.69;4974417;28;20201;-76
2023/07/09 03:33:52;;;;;;;7.03;5.37;;;;;;;16.32;70.43;101416.47;4961100;28;20213;-76
2023/07/09 03:36:19;;;;;;;6.60;6.00;;;;;;;16.34;70.79;101419.56;4973295;28;20221;-76
2023/07/09 03:38:47;;;;;;;6.60;5.57;;;;;;;16.37;70.87;101420.75;4973810;28;20220;-76
2023/07/09 03:41:14;;;;;;;6.33;5.63;;;;;;;16.38;70.73;101422.31;4969511;28;20212;-76
2023/07/09 03:43:40;;;;;;;6.83;6.13;;;;;;;16.40;70.49;101420.13;4975976;28;20213;-76
2023/07/09 03:46:06;;;;;;;8.77;5.90;;;;;;;16.44;70.73;101421.75;4970062;28;20213;-76
2023/07/09 03:48:33;;;;;;;7.50;6.13;;;;;;;16.48;70.49;101424.50;4972019;28;20256;-76
2023/07/09 03:50:59;;;;;;;6.87;5.20;;;;;;;16.54;70.69;101431.91;4973971;28;20661;-76
2023/07/09 03:53:25;;;;;;;6.77;5.77;;;;;;;16.56;70.42;101424.31;4975939;28;20215;-76
2023/07/09 03:55:55;;;;;;;6.57;5.30;;;;;;;16.63;70.32;101423.72;4979518;28;20490;-76
2023/07/09 03:58:22;;;;;;;6.83;5.70;;;;;;;16.70;70.53;101426.53;4971442;28;20215;-76
2023/07/09 04:00:48;;;;;;;6.83;5.33;;;;;;;16.74;69.72;101424.75;4972896;28;20202;-76
2023/07/09 04:03:14;;;;;;;6.47;5.73;;;;;;;16.76;67.94;101415.28;4973578;28;20222;-76
2023/07/09 04:05:41;;;;;;;6.57;5.97;;;;;;;16.83;68.30;101422.66;4962136;28;20759;-76
2023/07/09 04:08:07;;;;;;;7.10;6.40;;;;;;;16.87;66.46;101423.53;4981540;28;20226;-76
2023/07/09 04:10:33;;;;;;;6.23;5.70;;;;;;;16.93;66.36;101416.81;4977598;28;20233;-76
2023/07/09 04:13:01;;;;;;;6.80;5.80;;;;;;;16.99;65.37;101423.41;4976040;28;22225;-76
2023/07/09 04:15:28;;;;;;;6.83;6.13;;;;;;;17.06;65.41;101418.22;4973013;28;20848;-76
2023/07/09 04:17:54;;;;;;;7.00;6.10;;;;;;;17.14;65.03;101418.06;4980709;28;20217;-77
2023/07/09 04:20:21;;;;;;;7.30;6.43;;;;;;;17.23;65.14;101418.59;4972008;28;20239;-76
2023/07/09 04:22:47;;;;;;;6.20;5.60;;;;;;;17.34;66.62;101422.28;4976066;28;20234;-76
2023/07/09 04:25:13;;;;;;;9.87;6.37;;;;;;;17.44;66.60;101423.66;4973721;28;20253;-76
2023/07/09 04:27:40;;;;;;;7.00;5.97;;;;;;;17.54;65.80;101417.78;4958489;28;20225;-76
2023/07/09 04:30:11;;;;;;;6.73;5.77;;;;;;;17.64;64.71;101422.56;4955834;28;20237;-76
2023/07/09 04:32:38;;;;;;;7.33;5.97;;;;;;;17.73;62.54;101423.88;4969719;28;20216;-76
2023/07/09 04:35:05;;;;;;;7.53;6.23;;;;;;;17.86;62.59;101422.59;4975379;28;20570;-76
2023/07/09 04:37:32;;;;;;;6.73;5.47;;;;;;;18.00;64.56;101425.53;4958601;28;20671;-76
2023/07/09 04:39:58;;;;;;;6.90;6.20;;;;;;;18.14;65.49;101423.13;4972823;28;20245;-76
2023/07/09 04:42:24;;;;;;;7.67;5.37;;;;;;;18.27;66.08;101429.81;4959147;28;20208;-76
2023/07/09 04:44:51;;;;;;;8.70;6.17;;;;;;;18.40;65.92;101438.47;4973870;28;20754;-76
2023/07/09 04:47:18;;;;;;;6.00;5.40;;;;;;;18.53;65.65;101443.28;4975360;28;20210;-76
2023/07/09 04:49:45;;;;;;;6.30;5.50;;;;;;;18.66;65.95;101441.97;4972663;28;20221;-76
2023/07/09 04:52:11;;;;;;;7.53;6.30;;;;;;;18.80;65.54;101439.53;4952270;28;20263;-76
2023/07/09 04:54:40;;;;;;;14.73;5.87;;;;;;;18.90;60.51;101440.81;4967625;28;20245;-76
2023/07/09 04:57:07;;;;;;;6.07;5.20;;;;;;;19.06;60.46;101441.44;4972428;28;20213;-76
2023/07/09 04:59:33;;;;;;;7.17;4.93;;;;;;;19.22;59.58;101450.09;4973195;28;20576;-76
2023/07/09 05:02:00;;;;;;;6.23;5.37;;;;;;;19.37;59.26;101436.53;4976203;28;20748;-76
2023/07/09 05:04:27;;;;;;;6.30;5.30;;;;;;;19.53;58.46;101450.53;4972606;28;20300;-76
2023/07/09 05:06:54;;;;;;;6.70;5.23;;;;;;;19.67;58.13;101445.31;4969758;28;20198;-76
2023/07/09 05:09:20;;;;;;;5.20;4.47;;;;;;;19.86;57.77;101452.44;4969247;28;20237;-76
2023/07/09 05:11:46;;;;;;;6.57;5.40;;;;;;;20.02;57.54;101448.38;4973106;28;20205;-77
2023/07/09 05:14:13;;;;;;;5.07;4.37;;;;;;;20.18;55.28;101445.53;4960005;28;20244;-76
2023/07/09 05:16:39;;;;;;;7.40;4.10;;;;;;;20.31;55.31;101442.19;4975442;28;20212;-76
2023/07/09 05:19:08;;;;;;;6.07;4.30;;;;;;;20.45;54.18;101444.22;4980577;28;20722;-76
2023/07/09 05:21:35;;;;;;;5.60;4.33;;;;;;;20.59;53.97;101442.44;4972863;28;20204;-77
2023/07/09 05:24:02;;;;;;;6.10;4.93;;;;;;;20.73;53.06;101447.13;4981936;28;20201;-77
2023/07/09 05:26:28;;;;;;;7.70;4.50;;;;;;;20.84;52.34;101446.06;4982537;28;20244;-76
2023/07/09 05:28:56;;;;;;;5.33;4.80;;;;;;;20.95;52.54;101451.56;4962700;28;20240;-77
2023/07/09 05:31:23;;;;;;;6.07;4.57;;;;;;;21.06;52.70;101450.47;4952305;28;20328;-77
2023/07/09 05:33:49;;;;;;;6.20;4.50;;;;;;;21.17;52.09;101448.59;4973424;28;20212;-77
2023/07/09 05:36:15;;;;;;;5.40;4.20;;;;;;;21.30;52.42;101451.75;4972494;28;20704;-76
2023/07/09 05:38:43;;;;;;;4.80;4.27;;;;;;;21.41;50.92;101453.34;4973842;28;20229;-77
2023/07/09 05:41:10;;;;;;;4.97;4.43;;;;;;;21.50;51.68;101451.09;4970948;28;20213;-77
2023/07/09 05:43:36;;;;;;;5.13;4.40;;;;;;;21.61;51.17;101445.72;4967865;28;20434;-77
2023/07/09 05:46:03;;;;;;;5.60;4.47;;;;;;;21.71;50.32;101464.63;4974387;28;20225;-77
2023/07/09 05:48:29;;;;;;;4.97;4.47;;;;;;;21.79;51.15;101455.44;4957652;28;20671;-76
2023/07/09 05:50:55;;;;;;;5.53;4.80;;;;;;;21.88;50.76;101461.22;4977885;28;20467;-77
2023/07/09 05:53:22;;;;;;;6.27;4.60;;;;;;;21.99;50.21;101450.50;4974000;28;20210;-77
2023/07/09 05:55:53;;;;;;;6.20;4.67;;;;;;;22.07;49.91;101441.28;4972609;28;20197;-77
2023/07/09 05:58:20;;;;;;;7.10;4.70;;;;;;;22.16;50.13;101447.06;4976381;28;20210;-76
2023/07/09 06:00:46;;;;;;;7.23;4.80;;;;;;;22.25;49.65;101445.53;4955823;28;20304;-77
2023/07/09 06:03:12;;;;;;;6.93;5.23;;;;;;;22.36;50.07;101446.31;4974320;28;20206;-77
2023/07/09 06:05:40;;;;;;;7.17;5.67;;;;;;;22.46;49.60;101447.53;4971669;28;20337;-77
2023/07/09 06:08:06;;;;;;;5.70;5.10;;;;;;;22.54;49.20;101441.75;4975002;28;20213;-77
2023/07/09 06:10:32;;;;;;;6.83;5.40;;;;;;;22.65;49.25;101441.72;4974339;28;20233;-77
2023/07/09 06:13:00;;;;;;;5.87;5.23;;;;;;;22.75;48.93;101446.34;4973204;28;20221;-77
2023/07/09 06:15:27;;;;;;;6.63;5.30;;;;;;;22.83;48.55;101443.28;4974902;28;20541;-77
2023/07/09 06:17:53;;;;;;;6.00;5.40;;;;;;;22.92;48.64;101446.31;4956027;28;21063;-77
2023/07/09 06:20:19;;;;;;;7.17;5.77;;;;;;;23.01;48.92;101441.31;4975753;28;20225;-76
2023/07/09 06:22:46;;;;;;;5.90;4.97;;;;;;;23.12;48.48;101439.34;4972132;28;20210;-76
2023/07/09 06:25:13;;;;;;;12.23;5.13;;;;;;;23.22;48.55;101447.84;4979696;28;20225;-77
2023/07/09 06:27:39;;;;;;;6.93;5.70;;;;;;;23.33;47.37;101446.66;4969596;28;22030;-76
2023/07/09 06:30:08;;;;;;;5.80;5.10;;;;;;;23.44;48.00;101450.06;4975426;28;20241;-77
2023/07/09 06:32:34;;;;;;;5.93;5.30;;;;;;;23.53;48.47;101450.41;4976680;28;20211;-76
2023/07/09 06:35:01;;;;;;;6.50;5.57;;;;;;;23.62;47.94;101463.50;4975195;28;20211;-76
2023/07/09 06:37:27;;;;;;;7.97;5.13;;;;;;;23.70;47.89;101455.72;4977157;28;20213;-76
2023/07/09 06:39:53;;;;;;;5.57;4.97;;;;;;;23.78;47.66;101461.84;4956412;28;20222;-76
2023/07/09 06:42:20;;;;;;;7.37;5.27;;;;;;;23.88;47.84;101457.56;4951101;28;20224;-76
2023/07/09 06:45:11;;;;;;;7.55;5.57;;;;;;;24.00;47.57;101465.25;4976935;28;20257;-76
2023/07/09 06:47:37;;;;;;;7.13;5.37;;;;;;;24.07;47.65;101463.25;4976093;28;20209;-77
2023/07/09 06:50:04;;;;;;;6.05;5.45;;;;;;;24.17;45.67;101464.34;4980551;28;20245;-77
2023/07/09 06:52:30;;;;;;;6.15;5.25;;;;;;;24.25;47.09;101468.56;4979001;28;20205;-77
2023/07/09 06:54:56;;;;;;;5.47;4.97;;;;;;;24.35;47.17;101463.06;4970353;28;20576;-76
2023/07/09 06:57:23;;;;;;;8.07;5.70;;;;;;;24.42;46.74;101464.94;4973240;28;20228;-76
2023/07/09 06:59:49;;;;;;;5.60;5.03;;;;;;;24.51;46.95;101467.97;4975684;28;20235;-76
2023/07/09 07:02:17;;;;;;;8.30;5.35;;;;;;;24.59;45.51;101458.66;4979815;28;22002;-76
2023/07/09 07:04:43;;;;;;;6.32;4.95;;;;;;;24.67;45.85;101460.94;4971811;28;20218;-77
2023/07/09 07:07:10;;;;;;;5.45;4.95;;;;;;;24.75;46.24;101467.78;4978043;28;20209;-76
2023/07/09 07:09:36;;;;;;;6.07;5.20;;;;;;;24.85;45.37;101464.22;4976558;28;20244;-76
2023/07/09 07:12:03;;;;;;;5.90;5.30;;;;;;;24.97;46.00;101462.97;4979442;28;20958;-76
2023/07/09 07:14:31;;;;;;;5.65;5.13;;;;;;;25.06;45.40;101463.22;4982487;28;20293;-76
2023/07/09 07:16:57;;;;;;;6.90;5.40;;;;;;;25.16;45.34;101465.06;4985595;28;20202;-76
2023/07/09 07:19:25;;;;;;;5.90;5.30;;;;;;;25.26;45.36;101461.50;4985184;28;20219;-76
2023/07/09 07:21:52;;;;;;;5.32;4.82;;;;;;;25.35;43.16;101467.22;4981496;28;20212;-76
2023/07/09 07:24:18;;;;;;;7.07;4.90;;;;;;;25.45;44.16;101463.63;4986167;28;20224;-76
2023/07/09 07:26:45;;;;;;;6.47;4.85;;;;;;;25.55;42.00;101462.72;4972407;28;20296;-76
2023/07/09 07:29:11;;;;;;;6.32;5.30;;;;;;;25.64;42.92;101457.59;4990397;28;20233;-76
2023/07/09 07:31:37;;;;;;;6.15;5.50;;;;;;;25.74;43.89;101465.56;4983884;28;20205;-76
2023/07/09 07:34:04;;;;;;;6.05;5.32;;;;;;;25.82;43.53;101472.41;4988333;28;20205;-77
2023/07/09 07:36:31;;;;;;;5.53;5.03;;;;;;;25.88;43.57;101468.06;4984968;28;20213;-76
2023/07/09 07:38:58;;;;;;;9.27;7.70;;;;;;;25.97;42.94;101473.78;4987721;28;20535;-77
2023/07/09 07:41:24;;;;;;;11.15;5.60;;;;;;;26.06;41.02;101471.31;4989426;28;20216;-76
2023/07/09 07:43:50;;;;;;;5.22;4.75;;;;;;;26.14;40.51;101467.34;4983985;28;20206;-76
2023/07/09 07:46:17;;;;;;;9.05;5.13;;;;;;;26.26;41.00;101476.84;4986154;28;20221;-76
2023/07/09 07:48:43;;;;;;;5.20;4.70;;;;;;;26.34;40.61;101478.25;4983110;28;20220;-77
2023/07/09 07:51:10;;;;;;;5.78;5.18;;;;;;;26.43;41.04;101467.69;4984947;28;20284;-76
2023/07/09 07:53:38;;;;;;;5.30;4.80;;;;;;;26.54;41.87;101471.75;4982653;28;20201;-77
2023/07/09 07:56:05;;;;;;;6.75;5.00;;;;;;;26.63;40.48;101469.28;4982286;28;20273;-77
2023/07/09 07:58:32;;;;;;;6.75;4.80;;;;;;;26.75;39.73;101471.44;4984949;28;20730;-76
2023/07/09 08:00:59;;;;;;;8.43;5.45;;;;;;;26.86;39.16;101473.94;4985327;28;20272;-76
2023/07/09 08:03:25;;;;;;;6.25;4.50;;;;;;;26.98;41.25;101470.63;4985043;28;20197;-76
2023/07/09 08:05:53;;;;;;;8.38;4.93;;;;;;;27.09;41.09;101468.50;4988122;28;20221;-77
2023/07/09 08:08:19;;;;;;;5.50;4.85;;;;;;;27.20;41.46;101472.53;4970694;28;20209;-77
2023/07/09 08:10:47;;;;;;;5.70;5.07;;;;;;;27.32;40.42;101474.66;4970443;28;20209;-77
2023/07/09 08:13:13;;;;;;;6.38;4.88;;;;;;;27.43;37.90;101464.34;4983580;28;20216;-77
2023/07/09 08:15:40;;;;;;;7.50;5.05;;;;;;;27.55;38.72;101466.41;4983515;28;20204;-76
2023/07/09 08:18:06;;;;;;;5.28;4.78;;;;;;;27.63;38.72;101467.03;4982012;28;20216;-77
2023/07/09 08:20:33;;;;;;;6.43;4.90;;;;;;;27.72;38.35;101465.28;4986582;28;20228;-77
2023/07/09 08:23:00;;;;;;;5.50;4.88;;;;;;;27.83;39.82;101465.88;4985069;28;20228;-77
2023/07/09 08:25:26;;;;;;;5.13;4.63;;;;;;;27.94;38.34;101469.09;4984872;28;20223;-76
2023/07/09 08:27:54;;;;;;;8.27;4.88;;;;;;;28.03;38.84;101463.84;4981239;28;20219;-77
2023/07/09 08:30:20;;;;;;;7.80;5.40;;;;;;;28.13;37.91;101465.53;4985018;28;20229;-76
2023/07/09 08:32:47;;;;;;;4.90;4.40;;;;;;;28.22;36.04;101460.28;4986844;28;20214;-77
2023/07/09 08:35:15;;;;;;;4.85;4.32;;;;;;;28.30;34.03;101461.66;4971747;28;20209;-77
2023/07/09 08:37:41;;;;;;;5.38;4.28;;;;;;;28.37;34.74;101456.06;4985626;28;20206;-77
2023/07/09 08:40:13;;;;;;;5.07;4.03;;;;;;;28.47;33.38;101462.44;4984642;28;20233;-77
2023/07/09 08:42:45;;;;;;;3.83;3.42;;;;;;;28.56;34.72;101452.50;4987085;28;20214;-77
2023/07/09 08:45:25;;;;;;;4.10;3.70;;;;;;;28.66;36.30;101456.91;4986287;28;20237;-77
2023/07/09 08:47:59;;;;;;;3.83;3.20;;;;;;;28.80;35.60;101458.50;4979211;28;20264;-77
2023/07/09 08:50:32;;;;;;;5.90;3.70;;;;;;;28.91;33.86;101461.69;4986411;28;20230;-76
2023/07/09 08:52:59;;;;;;;3.90;3.25;;;;;;;29.03;32.79;101459.06;4985357;28;20214;-77
2023/07/09 08:55:29;;;;;;;5.57;3.80;;;;;;;29.13;31.80;101460.72;4984469;28;20205;-76
2023/07/09 08:57:59;;;;;;;5.15;3.63;;;;;;;29.22;34.48;101460.09;4981543;28;20225;-77
2023/07/09 09:00:31;;;;;;;8.13;3.05;;;;;;;29.30;32.28;101461.41;4971424;28;20221;-77
2023/07/09 09:03:00;;;;;;;4.25;3.30;;;;;;;29.40;31.77;101463.06;4986101;28;20205;-77
2023/07/09 09:05:27;;;;;;;4.43;3.03;;;;;;;29.49;31.14;101457.78;4985647;28;20296;-77
2023/07/09 09:08:01;;;;;;;5.30;3.03;;;;;;;29.54;31.62;101458.03;4985250;28;20243;-77
2023/07/09 09:10:34;;;;;;;5.13;2.90;;;;;;;29.60;31.89;101459.03;4985498;28;20240;-76
2023/07/09 09:13:09;;;;;;;4.65;3.25;;;;;;;29.72;27.50;101452.06;4982309;28;20205;-77
2023/07/09 09:15:40;;;;;;;3.97;3.22;;;;;;;29.80;28.45;101461.53;4986757;28;20653;-77
2023/07/09 09:18:27;;;;;;;3.55;2.88;;;;;;;29.90;28.92;101455.78;4986238;28;20209;-76
2023/07/09 09:20:58;;;;;;;3.88;3.10;;;;;;;29.96;26.83;101448.59;4982116;28;20236;-76
2023/07/09 09:23:37;;;;;;;4.57;2.80;;;;;;;30.07;29.88;101462.63;4980696;28;20213;-76
2023/07/09 09:26:16;;;;;;;4.95;2.95;;;;;;;30.16;27.00;101462.78;4978062;28;20233;-77
2023/07/09 09:28:43;;;;;;;3.40;3.10;;;;;;;30.26;27.03;101458.94;4979966;28;20251;-76
2023/07/09 09:31:13;;;;;;;5.40;3.20;;;;;;;30.37;28.03;101464.03;4984787;28;20217;-77
2023/07/09 09:33:43;;;;;;;4.05;3.30;;;;;;;30.46;27.09;101459.44;4982282;28;20264;-77
2023/07/09 09:36:16;;;;;;;5.18;3.55;;;;;;;30.54;28.24;101457.22;4983824;28;20217;-76
2023/07/09 09:38:44;;;;;;;4.65;3.25;;;;;;;30.62;26.69;101451.13;4964280;28;20241;-76
2023/07/09 09:41:16;;;;;;;7.05;3.75;;;;;;;30.67;27.32;101447.88;4943833;28;20252;-76
2023/07/09 09:43:45;;;;;;;6.60;3.42;;;;;;;30.72;26.55;101457.44;4939788;28;21475;-76
2023/07/09 09:46:21;;;;;;;4.80;3.45;;;;;;;30.79;27.60;101452.50;4944431;28;20244;-77
2023/07/09 09:48:50;;;;;;;4.38;3.42;;;;;;;30.83;26.95;101455.88;4924027;28;20841;-76
2023/07/09 09:51:21;;;;;;;4.53;3.70;;;;;;;30.91;27.04;101456.38;4926178;28;22284;-76
2023/07/09 09:53:51;;;;;;;4.43;3.22;;;;;;;30.98;27.19;101459.63;4921783;28;20408;-76
2023/07/09 09:56:20;;;;;;;6.70;3.78;;;;;;;31.01;26.96;101447.06;4944464;28;20217;-77
2023/07/09 09:58:53;;;;;;;4.55;3.63;;;;;;;31.09;27.06;101457.28;4941157;28;20237;-76
2023/07/09 10:01:29;;;;;;;6.00;3.60;;;;;;;31.15;26.78;101449.28;4943426;28;20333;-76
2023/07/09 10:03:58;;;;;;;5.90;3.40;;;;;;;31.15;26.76;101452.00;4941169;28;20205;-76
2023/07/09 10:06:36;;;;;;;3.65;3.30;;;;;;;31.19;27.46;101453.41;4944521;28;20229;-77
2023/07/09 10:09:13;;;;;;;4.25;3.38;;;;;;;31.29;26.20;101452.28;4945475;28;21343;-76
2023/07/09 10:11:48;;;;;;;4.85;3.92;;;;;;;31.35;25.21;101457.94;4946379;28;20251;-77
2023/07/09 10:14:32;;;;;;;8.60;3.53;;;;;;;31.41;27.27;101462.38;4929333;28;20221;-76
2023/07/09 10:17:07;;;;;;;4.07;3.72;;;;;;;31.47;27.58;101446.16;4946952;28;21016;-76
2023/07/09 10:19:45;;;;;;;4.03;3.33;;;;;;;31.51;27.79;101449.50;4945670;28;20980;-76
2023/07/09 10:22:23;;;;;;;3.72;3.42;;;;;;;31.52;27.30;101440.88;4946915;28;20675;-76
2023/07/09 10:25:00;;;;;;;3.97;3.58;;;;;;;31.56;26.64;101457.91;4941934;28;20253;-76
2023/07/09 10:27:38;;;;;;;4.10;3.70;;;;;;;31.58;27.01;101452.00;4939768;28;20335;-76
2023/07/09 10:30:27;;;;;;;5.15;3.17;;;;;;;31.65;26.52;101443.53;4929682;28;21604;-76
2023/07/09 10:33:08;;;;;;;4.75;3.67;;;;;;;31.69;26.16;101453.09;4940056;28;20210;-76
2023/07/09 10:35:46;;;;;;;4.07;3.67;;;;;;;31.75;27.11;101439.66;4944660;28;21395;-76
2023/07/09 10:38:36;;;;;;;4.22;3.50;;;;;;;31.80;26.67;101431.63;4936083;28;20765;-77
2023/07/09 10:41:05;;;;;;;4.28;3.40;;;;;;;31.85;27.18;101443.94;4938509;28;20266;-76
2023/07/09 10:43:39;;;;;;;4.30;3.13;;;;;;;31.90;27.05;101444.09;4916705;28;20313;-76
2023/07/09 10:46:13;;;;;;;4.43;3.30;;;;;;;31.94;25.55;101446.69;4939308;28;20289;-76
2023/07/09 10:48:43;;;;;;;3.65;3.35;;;;;;;31.97;24.17;101443.84;4941517;28;20640;-76
2023/07/09 10:51:19;;;;;;;3.90;3.50;;;;;;;32.02;26.21;101442.47;4938263;28;20216;-76
2023/07/09 10:53:51;;;;;;;4.35;3.45;;;;;;;32.06;25.34;101443.09;4935967;28;20239;-75
2023/07/09 10:56:21;;;;;;;4.38;3.13;;;;;;;32.09;26.03;101439.44;4944608;28;21219;-77
2023/07/09 10:58:55;;;;;;;5.20;3.60;;;;;;;32.13;26.77;101440.06;4935771;28;20229;-76
2023/07/09 11:01:30;;;;;;;4.10;3.40;;;;;;;32.14;26.28;101427.91;4927936;28;22114;-75
2023/07/09 11:04:02;;;;;;;3.50;3.10;;;;;;;32.20;26.76;101428.88;4899713;28;20267;-76
2023/07/09 11:06:35;;;;;;;4.00;3.60;;;;;;;32.22;25.89;101427.22;4945690;28;20607;-76
2023/07/09 11:09:02;;;;;;;3.63;3.28;;;;;;;32.26;25.90;101429.81;4941556;28;20601;-76
2023/07/09 11:11:34;;;;;;;5.18;3.63;;;;;;;32.30;23.91;101427.66;4943966;28;20205;-76
2023/07/09 11:14:07;;;;;;;10.70;3.97;;;;;;;32.27;24.75;101423.88;4945651;28;20217;-76
2023/07/09 11:16:39;;;;;;;4.15;3.75;;;;;;;32.31;25.25;101429.97;4942093;28;20221;-76
2023/07/09 11:19:14;;;;;;;4.18;3.67;;;;;;;32.37;25.56;101419.94;4944879;28;20861;-76
2023/07/09 11:21:46;;;;;;;4.70;3.47;;;;;;;32.41;24.41;101425.28;4946965;28;20213;-76
2023/07/09 11:24:31;;;;;;;4.63;4.03;;;;;;;32.42;24.53;101415.84;4927815;28;20585;-77
2023/07/09 11:26:59;;;;;;;5.00;3.97;;;;;;;32.37;23.64;101421.94;4925352;28;20310;-76
2023/07/09 11:29:26;;;;;;;5.38;3.42;;;;;;;32.37;23.59;101424.66;4948919;28;20247;-76
2023/07/09 11:31:53;;;;;;;4.25;3.75;;;;;;;32.41;23.51;101415.09;4943692;28;20201;-76